createdAt,value
2024-02-23T00:00:55.109Z,778.00
2024-02-23T00:01:55.162Z,784.00
2024-02-23T00:02:55.116Z,777.00
2024-02-23T00:03:55.177Z,774.00
2024-02-23T00:04:55.166Z,774.00
2024-02-23T00:05:55.114Z,780.00
2024-02-23T00:06:55.168Z,779.00
2024-02-23T00:07:55.137Z,782.00
2024-02-23T00:08:55.115Z,792.00
2024-02-23T00:09:55.133Z,791.00
2024-02-23T00:10:55.190Z,797.00
2024-02-23T00:11:55.148Z,803.00
2024-02-23T00:12:55.147Z,806.00
2024-02-23T00:13:55.192Z,812.00
2024-02-23T00:14:55.196Z,813.00
2024-02-23T00:15:55.236Z,811.00
2024-02-23T00:16:55.277Z,802.00
2024-02-23T00:17:55.289Z,818.00
2024-02-23T00:18:55.306Z,810.00
2024-02-23T00:19:55.332Z,815.00
2024-02-23T00:20:55.293Z,811.00
2024-02-23T00:21:55.295Z,800.00
2024-02-23T00:22:55.331Z,805.00
2024-02-23T00:23:55.316Z,813.00
2024-02-23T00:24:55.333Z,827.00
2024-02-23T00:25:55.359Z,809.00
2024-02-23T00:26:55.345Z,805.00
2024-02-23T00:27:55.348Z,813.00
2024-02-23T00:28:55.400Z,812.00
2024-02-23T00:29:55.372Z,811.00
2024-02-23T00:30:55.375Z,818.00
2024-02-23T00:31:55.406Z,817.00
2024-02-23T00:32:55.436Z,821.00
2024-02-23T00:33:55.449Z,818.00
2024-02-23T00:34:55.457Z,811.00
2024-02-23T00:35:55.449Z,811.00
2024-02-23T00:36:55.464Z,818.00
2024-02-23T00:37:55.519Z,819.00
2024-02-23T00:38:55.498Z,815.00
2024-02-23T00:39:55.485Z,806.00
2024-02-23T00:40:55.529Z,808.00
2024-02-23T00:41:55.511Z,824.00
2024-02-23T00:42:55.510Z,814.00
2024-02-23T00:43:55.569Z,818.00
2024-02-23T00:44:55.524Z,810.00
2024-02-23T00:45:55.520Z,809.00
2024-02-23T00:46:55.557Z,822.00
2024-02-23T00:47:55.546Z,813.00
2024-02-23T00:48:55.585Z,809.00
2024-02-23T00:49:55.560Z,832.00
2024-02-23T00:50:55.569Z,827.00
2024-02-23T00:51:55.574Z,830.00
2024-02-23T00:52:55.608Z,836.00
2024-02-23T00:53:55.585Z,829.00
2024-02-23T00:54:55.596Z,832.00
2024-02-23T00:55:55.669Z,837.00
2024-02-23T00:56:57.637Z,843.00
2024-02-23T00:57:55.629Z,846.00
2024-02-23T00:58:55.677Z,837.00
2024-02-23T00:59:55.659Z,841.00
2024-02-23T01:00:55.737Z,844.00
2024-02-23T01:01:55.720Z,841.00
2024-02-23T01:02:55.681Z,842.00
2024-02-23T01:03:55.715Z,844.00
2024-02-23T01:04:55.702Z,849.00
2024-02-23T01:05:55.747Z,857.00
2024-02-23T01:06:55.717Z,854.00
2024-02-23T01:07:55.783Z,845.00
2024-02-23T01:08:55.773Z,842.00
2024-02-23T01:09:55.765Z,848.00
2024-02-23T01:10:55.821Z,838.00
2024-02-23T01:11:55.947Z,833.00
2024-02-23T01:12:55.843Z,836.00
2024-02-23T01:13:55.880Z,837.00
2024-02-23T01:14:55.809Z,840.00
2024-02-23T01:15:55.812Z,837.00
2024-02-23T01:16:55.901Z,832.00
2024-02-23T01:17:55.900Z,831.00
2024-02-23T01:18:55.873Z,828.00
2024-02-23T01:19:55.880Z,824.00
2024-02-23T01:20:55.895Z,821.00
2024-02-23T01:21:55.898Z,817.00
2024-02-23T01:22:55.945Z,820.00
2024-02-23T01:23:55.958Z,803.00
2024-02-23T01:24:55.922Z,815.00
2024-02-23T01:25:55.935Z,796.00
2024-02-23T01:26:55.925Z,797.00
2024-02-23T01:27:55.947Z,794.00
2024-02-23T01:28:55.968Z,802.00
2024-02-23T01:29:55.956Z,782.00
2024-02-23T01:30:55.944Z,775.00
2024-02-23T01:31:56.040Z,757.00
2024-02-23T01:32:56.026Z,742.00
2024-02-23T01:33:56.053Z,743.00
2024-02-23T01:34:56.031Z,739.00
2024-02-23T01:35:56.009Z,735.00
2024-02-23T01:36:56.012Z,735.00
2024-02-23T01:37:56.037Z,724.00
2024-02-23T01:38:56.031Z,722.00
2024-02-23T01:39:56.015Z,701.00
2024-02-23T01:40:56.061Z,714.00
2024-02-23T01:41:56.074Z,708.00
2024-02-23T01:42:56.729Z,689.00
2024-02-23T01:43:56.084Z,684.00
2024-02-23T01:44:56.043Z,679.00
2024-02-23T01:45:56.149Z,672.00
2024-02-23T01:46:56.110Z,669.00
2024-02-23T01:47:56.199Z,665.00
2024-02-23T01:48:56.159Z,656.00
2024-02-23T01:49:56.435Z,656.00
2024-02-23T01:50:56.203Z,657.00
2024-02-23T01:51:56.185Z,653.00
2024-02-23T01:52:56.195Z,649.00
2024-02-23T01:53:56.128Z,643.00
2024-02-23T01:54:56.193Z,643.00
2024-02-23T01:55:56.196Z,638.00
2024-02-23T01:56:56.765Z,636.00
2024-02-23T01:57:56.220Z,638.00
2024-02-23T01:58:56.238Z,635.00
2024-02-23T01:59:56.256Z,627.00
2024-02-23T02:00:56.233Z,625.00
2024-02-23T02:01:56.243Z,626.00
2024-02-23T02:02:56.281Z,622.00
2024-02-23T02:03:56.342Z,618.00
2024-02-23T02:04:56.285Z,616.00
2024-02-23T02:05:56.317Z,615.00
2024-02-23T02:06:56.321Z,616.00
2024-02-23T02:07:56.325Z,613.00
2024-02-23T02:08:56.313Z,613.00
2024-02-23T02:09:56.319Z,607.00
2024-02-23T02:10:56.395Z,604.00
2024-02-23T02:11:56.454Z,603.00
2024-02-23T02:12:56.368Z,601.00
2024-02-23T02:13:56.400Z,606.00
2024-02-23T02:14:56.373Z,604.00
2024-02-23T02:15:56.406Z,604.00
2024-02-23T02:16:56.418Z,602.00
2024-02-23T02:17:56.457Z,604.00
2024-02-23T02:18:56.461Z,600.00
2024-02-23T02:19:56.517Z,601.00
2024-02-23T02:20:56.446Z,601.00
2024-02-23T02:21:56.440Z,605.00
2024-02-23T02:22:56.496Z,604.00
2024-02-23T02:23:56.475Z,605.00
2024-02-23T02:24:56.456Z,601.00
2024-02-23T02:25:56.497Z,600.00
2024-02-23T02:26:56.459Z,600.00
2024-02-23T02:27:56.475Z,600.00
2024-02-23T02:28:56.509Z,609.00
2024-02-23T02:29:56.484Z,604.00
2024-02-23T02:30:56.528Z,603.00
2024-02-23T02:31:56.538Z,604.00
2024-02-23T02:32:56.575Z,608.00
2024-02-23T02:33:56.597Z,603.00
2024-02-23T02:34:56.635Z,607.00
2024-02-23T02:35:56.590Z,605.00
2024-02-23T02:36:56.595Z,607.00
2024-02-23T02:37:57.405Z,605.00
2024-02-23T02:38:56.617Z,601.00
2024-02-23T02:39:56.620Z,601.00
2024-02-23T02:40:56.655Z,600.00
2024-02-23T02:41:56.678Z,611.00
2024-02-23T02:42:56.653Z,608.00
2024-02-23T02:43:56.691Z,610.00
2024-02-23T02:44:56.717Z,606.00
2024-02-23T02:45:56.713Z,608.00
2024-02-23T02:46:56.755Z,607.00
2024-02-23T02:47:56.769Z,609.00
2024-02-23T02:48:56.773Z,607.00
2024-02-23T02:49:56.832Z,609.00
2024-02-23T02:50:56.771Z,606.00
2024-02-23T02:51:56.784Z,605.00
2024-02-23T02:52:56.862Z,605.00
2024-02-23T02:53:56.811Z,607.00
2024-02-23T02:54:56.845Z,608.00
2024-02-23T02:55:56.843Z,611.00
2024-02-23T02:56:56.826Z,609.00
2024-02-23T02:57:56.845Z,611.00
2024-02-23T02:58:56.855Z,614.00
2024-02-23T02:59:56.851Z,612.00
2024-02-23T03:00:56.904Z,614.00
2024-02-23T03:01:56.877Z,617.00
2024-02-23T03:02:56.861Z,617.00
2024-02-23T03:03:56.918Z,618.00
2024-02-23T03:04:56.953Z,621.00
2024-02-23T03:05:56.973Z,618.00
2024-02-23T03:06:56.895Z,621.00
2024-02-23T03:07:56.973Z,620.00
2024-02-23T03:08:56.901Z,623.00
2024-02-23T03:09:56.912Z,622.00
2024-02-23T03:10:56.926Z,623.00
2024-02-23T03:11:56.951Z,629.00
2024-02-23T03:12:56.918Z,627.00
2024-02-23T03:13:56.967Z,623.00
2024-02-23T03:14:56.945Z,625.00
2024-02-23T03:15:56.960Z,622.00
2024-02-23T03:16:56.992Z,627.00
2024-02-23T03:17:56.984Z,624.00
2024-02-23T03:18:56.973Z,621.00
2024-02-23T03:19:57.033Z,624.00
2024-02-23T03:20:56.982Z,620.00
2024-02-23T03:21:57.012Z,623.00
2024-02-23T03:22:57.022Z,623.00
2024-02-23T03:23:57.025Z,619.00
2024-02-23T03:24:57.038Z,619.00
2024-02-23T03:25:57.068Z,622.00
2024-02-23T03:26:57.102Z,626.00
2024-02-23T03:27:57.026Z,627.00
2024-02-23T03:28:57.069Z,622.00
2024-02-23T03:29:57.038Z,626.00
2024-02-23T03:30:57.060Z,628.00
2024-02-23T03:31:57.225Z,629.00
2024-02-23T03:32:57.101Z,630.00
2024-02-23T03:33:57.093Z,623.00
2024-02-23T03:34:57.108Z,627.00
2024-02-23T03:35:57.070Z,627.00
2024-02-23T03:36:57.096Z,626.00
2024-02-23T03:37:57.113Z,633.00
2024-02-23T03:38:57.115Z,642.00
2024-02-23T03:39:57.127Z,641.00
2024-02-23T03:40:57.127Z,636.00
2024-02-23T03:41:57.129Z,640.00
2024-02-23T03:42:57.123Z,643.00
2024-02-23T03:43:57.146Z,640.00
2024-02-23T03:44:57.178Z,641.00
2024-02-23T03:45:57.155Z,639.00
2024-02-23T03:46:57.167Z,641.00
2024-02-23T03:47:57.227Z,643.00
2024-02-23T03:48:57.201Z,645.00
2024-02-23T03:49:57.178Z,647.00
2024-02-23T03:50:57.170Z,646.00
2024-02-23T03:51:57.187Z,646.00
2024-02-23T03:52:57.208Z,643.00
2024-02-23T03:53:57.213Z,639.00
2024-02-23T03:54:57.222Z,641.00
2024-02-23T03:55:57.240Z,648.00
2024-02-23T03:56:57.232Z,648.00
2024-02-23T03:57:57.252Z,648.00
2024-02-23T03:58:57.260Z,651.00
2024-02-23T03:59:57.252Z,652.00
2024-02-23T04:00:57.321Z,648.00
2024-02-23T04:01:57.327Z,645.00
2024-02-23T04:02:58.661Z,647.00
2024-02-23T04:03:57.361Z,645.00
2024-02-23T04:04:57.389Z,646.00
2024-02-23T04:05:57.340Z,643.00
2024-02-23T04:06:57.325Z,651.00
2024-02-23T04:07:57.367Z,646.00
2024-02-23T04:08:57.338Z,648.00
2024-02-23T04:09:57.372Z,650.00
2024-02-23T04:10:57.423Z,654.00
2024-02-23T04:11:57.433Z,656.00
2024-02-23T04:12:57.385Z,653.00
2024-02-23T04:13:57.408Z,651.00
2024-02-23T04:14:57.378Z,657.00
2024-02-23T04:15:57.386Z,660.00
2024-02-23T04:16:57.445Z,659.00
2024-02-23T04:18:05.170Z,600.00
2024-02-23T04:19:05.248Z,600.00
2024-02-23T04:20:05.240Z,600.00
2024-02-23T04:21:05.217Z,600.00
2024-02-23T04:22:05.237Z,600.00
2024-02-23T04:23:05.249Z,606.00
2024-02-23T04:24:05.225Z,611.00
2024-02-23T04:25:05.250Z,608.00
2024-02-23T04:26:05.252Z,605.00
2024-02-23T04:27:05.221Z,607.00
2024-02-23T04:28:05.775Z,608.00
2024-02-23T04:29:05.291Z,606.00
2024-02-23T04:30:05.216Z,605.00
2024-02-23T04:31:12.907Z,600.00
2024-02-23T04:32:13.051Z,600.00
2024-02-23T04:33:13.106Z,600.00
2024-02-23T04:34:13.043Z,600.00
2024-02-23T04:35:13.121Z,600.00
2024-02-23T04:36:13.105Z,605.00
2024-02-23T04:37:13.108Z,603.00
2024-02-23T04:38:13.125Z,600.00
2024-02-23T04:39:13.116Z,600.00
2024-02-23T04:40:13.105Z,603.00
2024-02-23T04:41:13.150Z,601.00
2024-02-23T04:42:13.128Z,602.00
2024-02-23T04:43:13.110Z,600.00
2024-02-23T04:44:13.131Z,600.00
2024-02-23T04:45:13.114Z,602.00
2024-02-23T04:46:13.150Z,603.00
2024-02-23T04:47:13.187Z,609.00
2024-02-23T04:48:13.141Z,608.00
2024-02-23T04:49:13.214Z,605.00
2024-02-23T04:50:13.196Z,609.00
2024-02-23T04:51:13.117Z,604.00
2024-02-23T04:52:13.132Z,603.00
2024-02-23T04:53:13.216Z,604.00
2024-02-23T04:54:13.122Z,601.00
2024-02-23T04:55:13.116Z,600.00
2024-02-23T04:56:13.136Z,605.00
2024-02-23T04:57:13.149Z,609.00
2024-02-23T04:58:13.114Z,603.00
2024-02-23T04:59:13.192Z,603.00
2024-02-23T05:00:13.133Z,605.00
2024-02-23T05:01:13.175Z,601.00
2024-02-23T05:02:13.171Z,600.00
2024-02-23T05:03:13.344Z,600.00
2024-02-23T05:04:13.126Z,602.00
2024-02-23T05:05:13.156Z,606.00
2024-02-23T05:06:13.135Z,601.00
2024-02-23T05:07:13.131Z,606.00
2024-02-23T05:08:13.172Z,601.00
2024-02-23T05:09:13.134Z,603.00
2024-02-23T05:10:13.123Z,603.00
2024-02-23T05:11:13.202Z,603.00
2024-02-23T05:12:13.194Z,603.00
2024-02-23T05:13:13.120Z,604.00
2024-02-23T05:14:13.221Z,604.00
2024-02-23T05:15:13.137Z,601.00
2024-02-23T05:16:13.128Z,600.00
2024-02-23T05:17:13.187Z,605.00
2024-02-23T05:18:13.182Z,602.00
2024-02-23T05:19:13.186Z,601.00
2024-02-23T05:20:13.209Z,605.00
2024-02-23T05:21:13.162Z,602.00
2024-02-23T05:22:13.120Z,602.00
2024-02-23T05:23:13.173Z,606.00
2024-02-23T05:24:13.142Z,601.00
2024-02-23T05:25:13.150Z,607.00
2024-02-23T05:26:13.185Z,606.00
2024-02-23T05:27:13.134Z,607.00
2024-02-23T05:28:13.132Z,607.00
2024-02-23T05:29:13.205Z,613.00
2024-02-23T05:30:13.175Z,611.00
2024-02-23T05:31:13.123Z,614.00
2024-02-23T05:32:13.189Z,612.00
2024-02-23T05:33:13.130Z,611.00
2024-02-23T05:34:13.173Z,612.00
2024-02-23T05:35:13.165Z,607.00
2024-02-23T05:36:13.134Z,609.00
2024-02-23T05:37:13.142Z,609.00
2024-02-23T05:38:13.161Z,609.00
2024-02-23T05:39:13.154Z,617.00
2024-02-23T05:40:13.185Z,621.00
2024-02-23T05:41:13.139Z,618.00
2024-02-23T05:42:13.134Z,622.00
2024-02-23T05:43:13.182Z,620.00
2024-02-23T05:44:13.152Z,616.00
2024-02-23T05:45:13.140Z,622.00
2024-02-23T05:46:13.155Z,615.00
2024-02-23T05:47:13.169Z,616.00
2024-02-23T05:48:13.224Z,615.00
2024-02-23T05:49:13.310Z,613.00
2024-02-23T05:50:13.194Z,606.00
2024-02-23T05:51:13.137Z,603.00
2024-02-23T05:52:13.148Z,608.00
2024-02-23T05:53:13.161Z,604.00
2024-02-23T05:54:13.137Z,602.00
2024-02-23T05:55:13.145Z,603.00
2024-02-23T05:56:13.168Z,602.00
2024-02-23T05:57:13.150Z,602.00
2024-02-23T05:58:13.150Z,604.00
2024-02-23T05:59:13.154Z,600.00
2024-02-23T06:00:15.699Z,601.00
2024-02-23T06:01:13.170Z,601.00
2024-02-23T06:02:13.194Z,602.00
2024-02-23T06:03:13.156Z,603.00
2024-02-23T06:04:13.160Z,608.00
2024-02-23T06:05:13.305Z,611.00
2024-02-23T06:06:13.274Z,610.00
2024-02-23T06:07:13.240Z,617.00
2024-02-23T06:08:13.162Z,606.00
2024-02-23T06:09:13.141Z,615.00
2024-02-23T06:10:13.148Z,617.00
2024-02-23T06:11:13.200Z,616.00
2024-02-23T06:12:13.189Z,614.00
2024-02-23T06:13:13.161Z,622.00
2024-02-23T06:14:13.201Z,614.00
2024-02-23T06:15:13.157Z,610.00
2024-02-23T06:16:13.164Z,612.00
2024-02-23T06:17:13.149Z,611.00
2024-02-23T06:18:13.217Z,614.00
2024-02-23T06:19:13.181Z,612.00
2024-02-23T06:20:13.174Z,615.00
2024-02-23T06:21:13.164Z,615.00
2024-02-23T06:22:13.161Z,614.00
2024-02-23T06:23:13.225Z,618.00
2024-02-23T06:24:13.158Z,616.00
2024-02-23T06:25:13.615Z,614.00
2024-02-23T06:26:13.200Z,618.00
2024-02-23T06:27:21.009Z,600.00
2024-02-23T06:28:20.969Z,600.00
2024-02-23T06:29:21.113Z,600.00
2024-02-23T06:30:21.514Z,600.00
2024-02-23T06:31:21.026Z,600.00
2024-02-23T06:32:21.069Z,607.00
2024-02-23T06:33:21.057Z,612.00
2024-02-23T06:34:21.072Z,621.00
2024-02-23T06:35:21.531Z,626.00
2024-02-23T06:36:21.004Z,627.00
2024-02-23T06:37:20.983Z,632.00
2024-02-23T06:38:21.072Z,644.00
2024-02-23T06:39:21.508Z,651.00
2024-02-23T06:40:21.001Z,655.00
2024-02-23T06:41:21.062Z,665.00
2024-02-23T06:42:21.004Z,702.00
2024-02-23T06:43:23.374Z,731.00
2024-02-23T06:44:21.616Z,733.00
2024-02-23T06:45:21.989Z,742.00
2024-02-23T06:46:21.326Z,764.00
2024-02-23T06:47:21.427Z,776.00
2024-02-23T06:48:21.521Z,839.00
2024-02-23T06:49:21.555Z,850.00
2024-02-23T06:50:21.592Z,851.00
2024-02-23T06:51:22.006Z,839.00
2024-02-23T06:52:21.573Z,848.00
2024-02-23T06:53:21.637Z,853.00
2024-02-23T06:54:21.628Z,855.00
2024-02-23T06:55:21.733Z,858.00
2024-02-23T06:56:21.761Z,853.00
2024-02-23T06:57:21.749Z,852.00
2024-02-23T06:58:21.783Z,858.00
2024-02-23T06:59:22.058Z,866.00
2024-02-23T07:00:21.826Z,862.00
2024-02-23T07:01:21.924Z,847.00
2024-02-23T07:02:21.924Z,840.00
2024-02-23T07:03:21.949Z,849.00
2024-02-23T07:04:22.093Z,850.00
2024-02-23T07:05:21.902Z,840.00
2024-02-23T07:06:21.949Z,837.00
2024-02-23T07:07:21.923Z,850.00
2024-02-23T07:08:22.020Z,851.00
2024-02-23T07:09:21.953Z,857.00
2024-02-23T07:10:21.974Z,853.00
2024-02-23T07:11:22.043Z,854.00
2024-02-23T07:12:22.052Z,858.00
2024-02-23T07:13:22.009Z,868.00
2024-02-23T07:14:22.538Z,867.00
2024-02-23T07:15:22.051Z,878.00
2024-02-23T07:16:22.061Z,877.00
2024-02-23T07:17:22.077Z,869.00
2024-02-23T07:18:22.099Z,874.00
2024-02-23T07:19:22.136Z,876.00
2024-02-23T07:20:22.152Z,869.00
2024-02-23T07:21:22.149Z,867.00
2024-02-23T07:22:22.148Z,876.00
2024-02-23T07:23:22.198Z,861.00
2024-02-23T07:24:22.147Z,876.00
2024-02-23T07:25:22.974Z,869.00
2024-02-23T07:26:22.525Z,863.00
2024-02-23T07:27:22.231Z,859.00
2024-02-23T07:28:22.214Z,852.00
2024-02-23T07:29:22.373Z,856.00
2024-02-23T07:30:22.308Z,852.00
2024-02-23T07:31:22.554Z,861.00
2024-02-23T07:32:22.340Z,860.00
2024-02-23T07:33:22.401Z,872.00
2024-02-23T07:34:22.576Z,864.00
2024-02-23T07:35:22.337Z,857.00
2024-02-23T07:36:22.454Z,893.00
2024-02-23T07:37:22.375Z,916.00
2024-02-23T07:38:22.454Z,934.00
2024-02-23T07:39:22.519Z,961.00
2024-02-23T07:40:22.947Z,997.00
2024-02-23T07:41:22.597Z,1036.00
2024-02-23T07:42:22.645Z,1077.00
2024-02-23T07:43:22.731Z,1107.00
2024-02-23T07:44:22.908Z,1146.00
2024-02-23T07:45:22.851Z,1182.00
2024-02-23T07:46:23.193Z,1223.00
2024-02-23T07:47:22.995Z,1256.00
2024-02-23T07:48:23.081Z,1293.00
2024-02-23T07:49:23.558Z,1333.00
2024-02-23T07:50:23.148Z,1367.00
2024-02-23T07:51:23.137Z,1399.00
2024-02-23T07:52:23.230Z,1434.00
2024-02-23T07:53:23.285Z,1454.00
2024-02-23T07:54:23.258Z,1488.00
2024-02-23T07:55:23.313Z,1514.00
2024-02-23T07:56:23.376Z,1541.00
2024-02-23T07:57:23.397Z,1568.00
2024-02-23T07:58:23.416Z,1605.00
2024-02-23T07:59:23.520Z,1626.00
2024-02-23T08:00:24.584Z,1639.00
2024-02-23T08:01:23.587Z,1641.00
2024-02-23T08:02:23.636Z,1665.00
2024-02-23T08:03:23.596Z,1695.00
2024-02-23T08:04:23.718Z,1706.00
2024-02-23T08:05:23.818Z,1723.00
2024-02-23T08:06:23.695Z,1757.00
2024-02-23T08:07:23.761Z,1769.00
2024-02-23T08:08:23.864Z,1782.00
2024-02-23T08:09:23.806Z,1795.00
2024-02-23T08:10:23.807Z,1813.00
2024-02-23T08:11:23.953Z,1807.00
2024-02-23T08:12:23.988Z,1800.00
2024-02-23T08:13:23.898Z,1806.00
2024-02-23T08:14:24.031Z,1810.00
2024-02-23T08:15:24.000Z,1792.00
2024-02-23T08:16:24.058Z,1786.00
2024-02-23T08:17:24.187Z,1788.00
2024-02-23T08:18:25.253Z,1774.00
2024-02-23T08:19:24.231Z,1773.00
2024-02-23T08:20:24.234Z,1762.00
2024-02-23T08:21:24.253Z,1770.00
2024-02-23T08:22:24.310Z,1759.00
2024-02-23T08:23:24.477Z,1745.00
2024-02-23T08:24:24.427Z,1740.00
2024-02-23T08:25:24.541Z,1738.00
2024-02-23T08:26:24.529Z,1720.00
2024-02-23T08:27:24.527Z,1708.00
2024-02-23T08:28:24.563Z,1677.00
2024-02-23T08:29:25.141Z,1669.00
2024-02-23T08:30:25.031Z,1677.00
2024-02-23T08:31:24.709Z,1653.00
2024-02-23T08:32:24.833Z,1648.00
2024-02-23T08:33:24.891Z,1633.00
2024-02-23T08:34:24.909Z,1625.00
2024-02-23T08:35:25.117Z,1629.00
2024-02-23T08:36:24.921Z,1628.00
2024-02-23T08:37:24.972Z,1622.00
2024-02-23T08:38:25.039Z,1623.00
2024-02-23T08:39:25.056Z,1639.00
2024-02-23T08:40:25.114Z,1645.00
2024-02-23T08:41:25.204Z,1647.00
2024-02-23T08:42:25.214Z,1648.00
2024-02-23T08:43:25.236Z,1645.00
2024-02-23T08:44:25.345Z,1654.00
2024-02-23T08:45:25.553Z,1650.00
2024-02-23T08:46:25.353Z,1651.00
2024-02-23T08:47:25.455Z,1643.00
2024-02-23T08:48:25.522Z,1648.00
2024-02-23T08:49:25.539Z,1641.00
2024-02-23T08:50:25.621Z,1643.00
2024-02-23T08:51:25.601Z,1633.00
2024-02-23T08:52:25.653Z,1630.00
2024-02-23T08:53:25.702Z,1626.00
2024-02-23T08:54:25.712Z,1623.00
2024-02-23T08:55:26.071Z,1617.00
2024-02-23T08:56:25.831Z,1608.00
2024-02-23T08:57:25.869Z,1604.00
2024-02-23T08:58:25.910Z,1605.00
2024-02-23T08:59:25.984Z,1590.00
2024-02-23T09:00:25.974Z,1594.00
2024-02-23T09:01:26.089Z,1593.00
2024-02-23T09:02:26.109Z,1589.00
2024-02-23T09:03:26.131Z,1584.00
2024-02-23T09:04:26.165Z,1575.00
2024-02-23T09:05:26.278Z,1583.00
2024-02-23T09:06:26.324Z,1576.00
2024-02-23T09:07:26.283Z,1566.00
2024-02-23T09:08:27.066Z,1566.00
2024-02-23T09:09:26.394Z,1560.00
2024-02-23T09:10:26.466Z,1556.00
2024-02-23T09:11:26.492Z,1554.00
2024-02-23T09:12:26.535Z,1539.00
2024-02-23T09:13:26.518Z,1539.00
2024-02-23T09:14:26.671Z,1550.00
2024-02-23T09:15:26.621Z,1565.00
2024-02-23T09:16:27.050Z,1550.00
2024-02-23T09:17:26.721Z,1551.00
2024-02-23T09:18:26.764Z,1548.00
2024-02-23T09:19:26.782Z,1553.00
2024-02-23T09:20:29.015Z,1546.00
2024-02-23T09:21:27.068Z,1548.00
2024-02-23T09:22:26.781Z,1543.00
2024-02-23T09:23:26.845Z,1534.00
2024-02-23T09:24:26.779Z,1553.00
2024-02-23T09:25:26.772Z,1556.00
2024-02-23T09:26:26.822Z,1560.00
2024-02-23T09:27:26.781Z,1563.00
2024-02-23T09:28:26.772Z,1574.00
2024-02-23T09:29:26.797Z,1573.00
2024-02-23T09:30:26.769Z,1574.00
2024-02-23T09:31:26.764Z,1578.00
2024-02-23T09:32:26.806Z,1577.00
2024-02-23T09:33:26.854Z,1584.00
2024-02-23T09:34:26.957Z,1580.00
2024-02-23T09:35:27.120Z,1588.00
2024-02-23T09:36:27.054Z,1582.00
2024-02-23T09:37:26.762Z,1605.00
2024-02-23T09:38:26.830Z,1600.00
2024-02-23T09:39:26.814Z,1606.00
2024-02-23T09:40:26.786Z,1614.00
2024-02-23T09:41:27.107Z,1609.00
2024-02-23T09:42:28.049Z,1616.00
2024-02-23T09:43:26.775Z,1621.00
2024-02-23T09:44:26.794Z,1627.00
2024-02-23T09:45:26.775Z,1624.00
2024-02-23T09:46:27.080Z,1618.00
2024-02-23T09:47:26.810Z,1595.00
2024-02-23T09:48:26.898Z,1572.00
2024-02-23T09:49:26.870Z,1536.00
2024-02-23T09:50:26.956Z,1511.00
2024-02-23T09:51:26.921Z,1489.00
2024-02-23T09:52:27.036Z,1446.00
2024-02-23T09:53:27.036Z,1415.00
2024-02-23T09:54:27.039Z,1397.00
2024-02-23T09:55:27.576Z,1366.00
2024-02-23T09:56:27.229Z,1354.00
2024-02-23T09:57:27.195Z,1332.00
2024-02-23T09:58:27.232Z,1311.00
2024-02-23T09:59:27.320Z,1295.00
2024-02-23T10:00:27.334Z,1273.00
2024-02-23T10:01:27.407Z,1260.00
2024-02-23T10:02:27.561Z,1239.00
2024-02-23T10:03:27.585Z,1222.00
2024-02-23T10:04:27.512Z,1203.00
2024-02-23T10:05:29.934Z,1186.00
2024-02-23T10:06:27.566Z,1164.00
2024-02-23T10:07:27.634Z,1142.00
2024-02-23T10:08:27.662Z,1124.00
2024-02-23T10:09:27.542Z,1106.00
2024-02-23T10:10:27.557Z,1093.00
2024-02-23T10:11:28.202Z,1083.00
2024-02-23T10:12:27.632Z,1081.00
2024-02-23T10:13:27.544Z,1068.00
2024-02-23T10:14:27.622Z,1048.00
2024-02-23T10:15:27.559Z,1040.00
2024-02-23T10:16:27.562Z,1032.00
2024-02-23T10:17:27.687Z,1020.00
2024-02-23T10:18:27.570Z,1005.00
2024-02-23T10:19:27.666Z,995.00
2024-02-23T10:20:27.626Z,989.00
2024-02-23T10:21:27.569Z,984.00
2024-02-23T10:22:27.575Z,969.00
2024-02-23T10:23:27.610Z,933.00
2024-02-23T10:24:27.553Z,925.00
2024-02-23T10:25:27.591Z,913.00
2024-02-23T10:26:27.572Z,887.00
2024-02-23T10:27:27.597Z,868.00
2024-02-23T10:28:27.545Z,868.00
2024-02-23T10:29:27.631Z,864.00
2024-02-23T10:30:27.593Z,810.00
2024-02-23T10:31:27.542Z,840.00
2024-02-23T10:32:28.117Z,868.00
2024-02-23T10:33:27.778Z,901.00
2024-02-23T10:34:27.760Z,911.00
2024-02-23T10:35:27.806Z,932.00
2024-02-23T10:36:30.422Z,951.00
2024-02-23T10:37:27.804Z,967.00
2024-02-23T10:38:27.861Z,989.00
2024-02-23T10:39:27.844Z,1006.00
2024-02-23T10:40:27.824Z,1028.00
2024-02-23T10:41:27.877Z,1032.00
2024-02-23T10:42:27.853Z,1038.00
2024-02-23T10:43:27.818Z,1057.00
2024-02-23T10:44:27.855Z,1078.00
2024-02-23T10:45:28.094Z,1092.00
2024-02-23T10:46:27.810Z,1091.00
2024-02-23T10:47:27.828Z,1117.00
2024-02-23T10:48:27.886Z,1145.00
2024-02-23T10:49:28.317Z,1148.00
2024-02-23T10:50:28.139Z,1150.00
2024-02-23T10:51:27.802Z,1145.00
2024-02-23T10:52:27.842Z,1141.00
2024-02-23T10:53:27.860Z,1136.00
2024-02-23T10:54:27.811Z,1131.00
2024-02-23T10:55:27.837Z,1125.00
2024-02-23T10:56:27.860Z,1131.00
2024-02-23T10:57:27.833Z,1142.00
2024-02-23T10:58:27.830Z,1144.00
2024-02-23T10:59:27.840Z,1164.00
2024-02-23T11:00:27.821Z,1169.00
2024-02-23T11:01:27.850Z,1170.00
2024-02-23T11:02:27.922Z,1177.00
2024-02-23T11:03:27.821Z,1172.00
2024-02-23T11:04:27.883Z,1173.00
2024-02-23T11:05:28.315Z,1176.00
2024-02-23T11:06:27.879Z,1173.00
2024-02-23T11:07:27.825Z,1174.00
2024-02-23T11:08:27.868Z,1176.00
2024-02-23T11:09:27.835Z,1191.00
2024-02-23T11:10:28.119Z,1195.00
2024-02-23T11:11:27.878Z,1196.00
2024-02-23T11:12:27.957Z,1185.00
2024-02-23T11:13:27.821Z,1175.00
2024-02-23T11:14:27.860Z,1173.00
2024-02-23T11:15:27.839Z,1195.00
2024-02-23T11:16:27.826Z,1236.00
2024-02-23T11:17:27.898Z,1304.00
2024-02-23T11:18:27.850Z,1349.00
2024-02-23T11:19:27.890Z,1403.00
2024-02-23T11:20:30.567Z,1450.00
2024-02-23T11:21:27.857Z,1450.00
2024-02-23T11:22:36.657Z,1453.00
2024-02-23T11:23:28.915Z,1451.00
2024-02-23T11:24:27.831Z,1454.00
2024-02-23T11:25:28.122Z,1453.00
2024-02-23T11:26:27.877Z,1396.00
2024-02-23T11:27:27.824Z,1360.00
2024-02-23T11:28:27.837Z,1324.00
2024-02-23T11:29:27.892Z,1286.00
2024-02-23T11:30:28.139Z,1283.00
2024-02-23T11:31:27.821Z,1271.00
2024-02-23T11:32:27.888Z,1252.00
2024-02-23T11:33:27.936Z,1230.00
2024-02-23T11:34:27.904Z,1218.00
2024-02-23T11:35:28.304Z,1212.00
2024-02-23T11:36:27.845Z,1202.00
2024-02-23T11:37:27.893Z,1195.00
2024-02-23T11:38:27.952Z,1175.00
2024-02-23T11:39:27.996Z,1156.00
2024-02-23T11:40:28.101Z,1143.00
2024-02-23T11:41:28.154Z,1140.00
2024-02-23T11:42:29.133Z,1132.00
2024-02-23T11:43:28.184Z,1139.00
2024-02-23T11:44:28.263Z,1147.00
2024-02-23T11:45:28.619Z,1138.00
2024-02-23T11:46:28.343Z,1143.00
2024-02-23T11:47:29.260Z,1152.00
2024-02-23T11:48:28.443Z,1157.00
2024-02-23T11:49:28.609Z,1152.00
2024-02-23T11:50:28.631Z,1150.00
2024-02-23T11:51:28.583Z,1142.00
2024-02-23T11:52:28.644Z,1138.00
2024-02-23T11:53:28.705Z,1134.00
2024-02-23T11:54:28.715Z,1134.00
2024-02-23T11:55:28.769Z,1125.00
2024-02-23T11:56:28.845Z,1131.00
2024-02-23T11:57:30.855Z,1129.00
2024-02-23T11:58:29.868Z,1127.00
2024-02-23T11:59:28.932Z,1129.00
2024-02-23T12:00:28.862Z,1128.00
2024-02-23T12:01:28.870Z,1131.00
2024-02-23T12:02:29.697Z,1162.00
2024-02-23T12:03:28.868Z,1187.00
2024-02-23T12:04:28.891Z,1190.00
2024-02-23T12:05:28.888Z,1197.00
2024-02-23T12:06:28.862Z,1227.00
2024-02-23T12:07:29.006Z,1250.00
2024-02-23T12:08:28.889Z,1252.00
2024-02-23T12:09:28.878Z,1267.00
2024-02-23T12:10:29.137Z,1269.00
2024-02-23T12:11:28.929Z,1284.00
2024-02-23T12:12:28.908Z,1279.00
2024-02-23T12:13:28.965Z,1281.00
2024-02-23T12:14:28.991Z,1275.00
2024-02-23T12:15:29.132Z,1282.00
2024-02-23T12:16:29.060Z,1282.00
2024-02-23T12:17:29.158Z,1289.00
2024-02-23T12:18:29.125Z,1296.00
2024-02-23T12:19:29.129Z,1308.00
2024-02-23T12:20:29.260Z,1316.00
2024-02-23T12:21:29.201Z,1326.00